createdAt,value
2024-02-02T00:00:45.060Z,6.20
2024-02-02T00:03:12.861Z,6.30
2024-02-02T00:05:40.244Z,6.30
2024-02-02T00:08:07.852Z,7.87
2024-02-02T00:10:35.396Z,8.23
2024-02-02T00:13:02.788Z,7.17
2024-02-02T00:15:30.323Z,6.67
2024-02-02T00:17:57.952Z,5.67
2024-02-02T00:20:25.335Z,5.43
2024-02-02T00:22:55.541Z,6.13
2024-02-02T00:25:23.836Z,7.80
2024-02-02T00:27:51.137Z,6.30
2024-02-02T00:30:19.199Z,5.83
2024-02-02T00:32:46.863Z,5.87
2024-02-02T00:35:16.994Z,6.60
2024-02-02T00:37:45.499Z,5.63
2024-02-02T00:40:12.947Z,5.30
2024-02-02T00:42:40.578Z,5.53
2024-02-02T00:45:08.525Z,5.00
2024-02-02T00:47:35.888Z,4.73
2024-02-02T00:50:05.444Z,4.10
2024-02-02T00:52:33.819Z,4.20
2024-02-02T00:55:01.850Z,4.83
2024-02-02T00:57:30.890Z,4.50
2024-02-02T00:59:58.501Z,5.07
2024-02-02T01:02:25.995Z,5.67
2024-02-02T01:04:53.389Z,7.53
2024-02-02T01:07:21.010Z,8.73
2024-02-02T01:09:48.423Z,9.17
2024-02-02T01:12:16.239Z,8.50
2024-02-02T01:14:43.935Z,8.60
2024-02-02T01:17:11.358Z,8.73
2024-02-02T01:19:38.946Z,8.63
2024-02-02T01:22:07.237Z,7.40
2024-02-02T01:24:34.730Z,6.17
2024-02-02T01:27:02.090Z,6.43
2024-02-02T01:29:30.699Z,6.73
2024-02-02T01:31:58.102Z,6.33
2024-02-02T01:34:25.599Z,6.27
2024-02-02T01:36:53.316Z,6.60
2024-02-02T01:39:20.735Z,7.10
2024-02-02T01:41:48.158Z,6.43
2024-02-02T01:44:15.882Z,7.23
2024-02-02T01:46:47.948Z,5.43
2024-02-02T01:49:15.552Z,6.17
2024-02-02T01:51:44.374Z,5.87
2024-02-02T01:54:11.944Z,5.60
2024-02-02T01:56:39.814Z,4.60
2024-02-02T01:59:09.179Z,5.87
2024-02-02T02:01:36.796Z,6.10
2024-02-02T02:04:04.957Z,6.57
2024-02-02T02:06:32.578Z,5.43
2024-02-02T02:09:01.473Z,5.00
2024-02-02T02:11:29.096Z,5.67
2024-02-02T02:13:56.684Z,5.83
2024-02-02T02:16:23.996Z,5.87
2024-02-02T02:18:56.247Z,5.50
2024-02-02T02:21:30.551Z,5.30
2024-02-02T02:23:58.284Z,6.00
2024-02-02T02:26:27.249Z,6.10
2024-02-02T02:28:54.638Z,5.20
2024-02-02T02:31:21.958Z,6.60
2024-02-02T02:33:49.469Z,6.20
2024-02-02T02:36:17.208Z,5.80
2024-02-02T02:38:45.254Z,6.10
2024-02-02T02:41:12.874Z,5.20
2024-02-02T02:43:40.606Z,5.97
2024-02-02T02:46:08.890Z,5.30
2024-02-02T02:48:39.953Z,5.90
2024-02-02T02:51:07.367Z,5.60
2024-02-02T02:53:34.698Z,5.20
2024-02-02T02:56:02.250Z,5.27
2024-02-02T02:58:29.606Z,5.03
2024-02-02T03:00:57.108Z,4.87
2024-02-02T03:03:24.723Z,5.33
2024-02-02T03:05:52.238Z,5.10
2024-02-02T03:08:19.621Z,4.87
2024-02-02T03:10:47.172Z,5.13
2024-02-02T03:13:14.564Z,5.03
2024-02-02T03:15:42.898Z,4.97
2024-02-02T03:18:12.677Z,5.23
2024-02-02T03:20:40.027Z,5.27
2024-02-02T03:23:07.410Z,5.13
2024-02-02T03:25:34.845Z,5.17
2024-02-02T03:28:02.193Z,5.00
2024-02-02T03:30:32.065Z,4.23
2024-02-02T03:32:59.709Z,4.23
2024-02-02T03:35:27.973Z,4.50
2024-02-02T03:37:55.358Z,4.77
2024-02-02T03:40:22.785Z,4.50
2024-02-02T03:42:50.152Z,4.77
2024-02-02T03:45:17.490Z,4.53
2024-02-02T03:47:45.011Z,5.10
2024-02-02T03:50:12.534Z,4.30
2024-02-02T03:52:40.062Z,4.40
2024-02-02T03:55:08.047Z,4.60
2024-02-02T03:57:35.622Z,4.40
2024-02-02T04:00:05.833Z,4.60
2024-02-02T04:02:33.351Z,4.97
2024-02-02T04:05:00.709Z,4.87
2024-02-02T04:07:28.189Z,4.93
2024-02-02T04:09:55.703Z,4.30
2024-02-02T04:12:23.193Z,4.67
2024-02-02T04:14:50.546Z,4.30
2024-02-02T04:17:18.008Z,5.07
2024-02-02T04:19:45.776Z,4.80
2024-02-02T04:22:13.153Z,4.57
2024-02-02T04:24:40.637Z,4.73
2024-02-02T04:27:08.057Z,4.50
2024-02-02T04:29:35.560Z,4.43
2024-02-02T04:32:03.220Z,4.77
2024-02-02T04:34:33.579Z,4.23
2024-02-02T04:37:01.102Z,4.10
2024-02-02T04:39:28.624Z,4.27
2024-02-02T04:41:56.062Z,4.60
2024-02-02T04:44:23.723Z,5.80
2024-02-02T04:46:51.155Z,4.50
2024-02-02T04:49:18.640Z,4.67
2024-02-02T04:51:46.056Z,4.57
2024-02-02T04:54:13.567Z,4.57
2024-02-02T04:56:40.948Z,4.90
2024-02-02T04:59:08.325Z,4.30
2024-02-02T05:01:35.761Z,4.90
2024-02-02T05:04:03.157Z,5.00
2024-02-02T05:06:30.770Z,4.67
2024-02-02T05:08:58.316Z,4.13
2024-02-02T05:11:25.996Z,4.23
2024-02-02T05:13:53.299Z,4.40
2024-02-02T05:16:20.770Z,4.10
2024-02-02T05:18:48.252Z,4.10
2024-02-02T05:21:15.728Z,5.50
2024-02-02T05:23:48.969Z,8.13
2024-02-02T05:26:18.333Z,4.13
2024-02-02T05:28:45.739Z,7.70
2024-02-02T05:31:13.331Z,12.57
2024-02-02T05:33:41.693Z,6.27
2024-02-02T05:36:10.130Z,5.77
2024-02-02T05:38:39.180Z,6.00
2024-02-02T05:41:06.591Z,5.43
2024-02-02T05:43:33.917Z,6.50
2024-02-02T05:46:01.430Z,5.37
2024-02-02T05:48:29.057Z,5.83
2024-02-02T05:50:56.665Z,5.57
2024-02-02T05:53:24.110Z,5.00
2024-02-02T05:55:51.544Z,6.13
2024-02-02T05:58:18.912Z,5.80
2024-02-02T06:00:46.443Z,5.53
2024-02-02T06:03:13.884Z,4.73
2024-02-02T06:05:41.596Z,5.07
2024-02-02T06:08:09.127Z,5.57
2024-02-02T06:10:36.452Z,5.67
2024-02-02T06:13:04.160Z,5.70
2024-02-02T06:15:31.776Z,5.97
2024-02-02T06:17:59.382Z,5.60
2024-02-02T06:20:26.985Z,5.53
2024-02-02T06:22:54.388Z,6.03
2024-02-02T06:25:21.768Z,5.40
2024-02-02T06:27:49.154Z,5.70
2024-02-02T06:30:17.418Z,5.23
2024-02-02T06:32:50.085Z,5.63
2024-02-02T06:35:17.628Z,7.70
2024-02-02T06:37:45.121Z,9.07
2024-02-02T06:40:13.062Z,12.97
2024-02-02T06:42:40.530Z,8.53
2024-02-02T06:45:08.624Z,5.87
2024-02-02T06:47:38.376Z,5.77
2024-02-02T06:50:09.761Z,5.70
2024-02-02T06:52:37.487Z,6.07
2024-02-02T06:55:05.236Z,5.30
2024-02-02T06:57:35.677Z,6.37
2024-02-02T07:00:03.779Z,5.97
2024-02-02T07:02:32.037Z,5.73
2024-02-02T07:04:59.660Z,6.07
2024-02-02T07:07:27.256Z,6.00
2024-02-02T07:09:58.518Z,5.73
2024-02-02T07:13:00.766Z,6.80
2024-02-02T07:15:32.106Z,6.27
2024-02-02T07:18:00.131Z,5.60
2024-02-02T07:20:28.952Z,5.13
2024-02-02T07:22:58.026Z,5.30
2024-02-02T07:25:26.550Z,5.07
2024-02-02T07:28:24.122Z,5.50
2024-02-02T07:30:54.366Z,5.77
2024-02-02T07:33:33.421Z,8.73
2024-02-02T07:36:01.901Z,5.10
2024-02-02T07:38:50.007Z,5.33
2024-02-02T07:41:19.753Z,4.97
2024-02-02T07:43:48.847Z,5.13
2024-02-02T07:46:17.136Z,5.30
2024-02-02T07:48:47.933Z,5.27
2024-02-02T07:51:17.652Z,5.00
2024-02-02T07:53:46.362Z,5.90
2024-02-02T07:56:14.760Z,4.73
2024-02-02T07:58:42.545Z,5.17
2024-02-02T08:01:10.826Z,5.37
2024-02-02T08:03:38.987Z,5.07
2024-02-02T08:06:07.410Z,5.03
2024-02-02T08:08:36.953Z,5.37
2024-02-02T08:11:04.412Z,5.00
2024-02-02T08:13:32.609Z,5.67
2024-02-02T08:16:00.439Z,5.77
2024-02-02T08:18:29.264Z,4.97
2024-02-02T08:20:57.190Z,4.53
2024-02-02T08:23:26.584Z,4.40
2024-02-02T08:25:54.102Z,4.13
2024-02-02T08:28:21.618Z,4.63
2024-02-02T08:30:49.151Z,4.70
2024-02-02T08:33:16.774Z,4.00
2024-02-02T08:35:45.032Z,4.47
2024-02-02T08:38:13.593Z,4.83
2024-02-02T08:40:45.170Z,4.07
2024-02-02T08:43:24.033Z,4.00
2024-02-02T08:46:07.450Z,4.43
2024-02-02T08:48:46.568Z,4.33
2024-02-02T08:51:23.946Z,5.57
2024-02-02T08:54:00.678Z,4.67
2024-02-02T08:56:28.297Z,4.43
2024-02-02T08:58:56.392Z,4.37
2024-02-02T09:01:26.848Z,4.10
2024-02-02T09:03:54.870Z,4.63
2024-02-02T09:06:31.070Z,4.80
2024-02-02T09:08:59.119Z,4.77
2024-02-02T09:11:26.669Z,5.57
2024-02-02T09:14:08.907Z,5.73
2024-02-02T09:16:43.355Z,5.00
2024-02-02T09:19:28.447Z,5.17
2024-02-02T09:22:01.768Z,5.33
2024-02-02T09:24:34.928Z,5.00
2024-02-02T09:27:02.540Z,5.10
2024-02-02T09:29:31.077Z,5.97
2024-02-02T09:31:58.516Z,5.27
2024-02-02T09:34:26.488Z,6.40
2024-02-02T09:36:54.683Z,5.67
2024-02-02T09:39:34.330Z,5.53
2024-02-02T09:42:10.936Z,5.80
2024-02-02T09:44:53.597Z,5.77
2024-02-02T09:47:53.936Z,5.37
2024-02-02T09:50:30.093Z,5.87
2024-02-02T09:53:34.058Z,6.57
2024-02-02T09:56:22.916Z,6.63
2024-02-02T09:59:08.367Z,5.37
2024-02-02T10:01:44.572Z,5.20
2024-02-02T10:04:40.488Z,6.27
2024-02-02T10:07:30.924Z,5.80
2024-02-02T10:10:19.729Z,5.70
2024-02-02T10:13:18.230Z,6.70
2024-02-02T10:15:51.209Z,5.63
2024-02-02T10:18:30.709Z,6.27
2024-02-02T10:21:21.133Z,5.57
2024-02-02T10:24:11.973Z,6.53
2024-02-02T10:27:21.524Z,6.63
2024-02-02T10:29:48.910Z,5.93
2024-02-02T10:32:45.297Z,6.30
2024-02-02T10:35:34.042Z,6.63
2024-02-02T10:38:26.483Z,6.47
2024-02-02T10:41:25.059Z,6.13
2024-02-02T10:43:59.435Z,5.53
2024-02-02T10:46:47.052Z,5.50
2024-02-02T10:49:25.643Z,4.93
2024-02-02T10:52:13.882Z,5.27
2024-02-02T10:55:14.651Z,6.00
2024-02-02T10:58:00.487Z,5.80
2024-02-02T11:00:33.222Z,5.67
2024-02-02T11:03:21.188Z,6.30
2024-02-02T11:06:10.882Z,5.33
2024-02-02T11:08:49.724Z,5.07
2024-02-02T11:11:26.757Z,6.00
2024-02-02T11:14:27.484Z,5.97
2024-02-02T11:17:19.550Z,5.13
2024-02-02T11:20:16.374Z,5.93
2024-02-02T11:22:55.613Z,5.20
2024-02-02T11:25:47.424Z,5.00
2024-02-02T11:28:22.476Z,5.17
2024-02-02T11:31:17.116Z,5.37
2024-02-02T11:33:53.692Z,5.20
2024-02-02T11:36:45.533Z,4.73
2024-02-02T11:39:42.319Z,4.10
2024-02-02T11:42:12.645Z,4.67
2024-02-02T11:44:43.712Z,5.00
2024-02-02T11:47:11.565Z,4.30
2024-02-02T11:49:46.072Z,4.37
2024-02-02T11:52:26.769Z,3.60
2024-02-02T11:55:02.515Z,4.17
2024-02-02T11:57:33.974Z,4.13
2024-02-02T12:00:06.962Z,3.83
2024-02-02T12:03:03.707Z,3.90
2024-02-02T12:05:49.822Z,4.43
2024-02-02T12:08:46.394Z,3.30
2024-02-02T12:11:15.947Z,4.10
2024-02-02T12:13:47.391Z,3.70
2024-02-02T12:16:16.051Z,3.40
2024-02-02T12:18:44.120Z,3.60
2024-02-02T12:21:16.886Z,3.50
2024-02-02T12:23:48.017Z,3.30
2024-02-02T12:26:16.769Z,3.53
2024-02-02T12:28:44.258Z,3.87
2024-02-02T12:31:11.598Z,2.80
2024-02-02T12:33:39.204Z,3.10
2024-02-02T12:36:10.113Z,3.37
2024-02-02T12:38:39.905Z,3.20
2024-02-02T12:41:10.049Z,2.67
2024-02-02T12:43:37.499Z,4.00
2024-02-02T12:46:04.988Z,3.10
2024-02-02T12:48:34.959Z,2.97
2024-02-02T12:51:03.032Z,2.67
2024-02-02T12:53:31.959Z,2.97
2024-02-02T12:56:00.135Z,2.95
2024-02-02T12:58:29.926Z,3.20
2024-02-02T13:00:57.552Z,2.83
2024-02-02T13:03:37.710Z,3.30
2024-02-02T13:06:12.188Z,3.22
2024-02-02T13:08:42.093Z,3.13
2024-02-02T13:11:26.460Z,2.70
2024-02-02T13:14:06.565Z,3.05
2024-02-02T13:16:34.942Z,2.78
2024-02-02T13:19:08.757Z,3.10
2024-02-02T13:21:40.808Z,3.22
2024-02-02T13:24:20.314Z,2.90
2024-02-02T13:26:52.372Z,3.00
2024-02-02T13:29:26.830Z,3.00
2024-02-02T13:31:54.204Z,3.28
2024-02-02T13:34:21.795Z,3.55
2024-02-02T13:36:49.665Z,3.03
2024-02-02T13:39:22.787Z,3.33
2024-02-02T13:41:50.818Z,3.10
2024-02-02T13:44:24.288Z,3.30
2024-02-02T13:46:52.394Z,3.22
2024-02-02T13:49:31.050Z,3.42
2024-02-02T13:52:07.083Z,4.00
2024-02-02T13:54:35.388Z,3.70
2024-02-02T13:57:02.961Z,3.97
2024-02-02T13:59:30.873Z,3.47
2024-02-02T14:02:08.104Z,3.30
2024-02-02T14:04:35.713Z,3.53
2024-02-02T14:07:14.411Z,3.20
2024-02-02T14:09:42.884Z,3.57
2024-02-02T14:12:10.930Z,4.27
2024-02-02T14:14:38.495Z,3.60
2024-02-02T14:17:06.935Z,3.60
2024-02-02T14:19:34.872Z,3.73
2024-02-02T14:22:10.413Z,3.67
2024-02-02T14:24:52.305Z,3.80
2024-02-02T14:27:20.010Z,3.30
2024-02-02T14:29:48.833Z,3.50
2024-02-02T14:32:17.384Z,3.70
2024-02-02T14:34:44.896Z,3.97
2024-02-02T14:37:15.763Z,3.70
2024-02-02T14:39:43.718Z,3.20
2024-02-02T14:42:11.292Z,3.47
2024-02-02T14:44:38.800Z,3.25
2024-02-02T14:47:08.285Z,3.93
2024-02-02T14:49:35.981Z,3.70
2024-02-02T14:52:03.588Z,3.40
2024-02-02T14:54:31.984Z,3.60
2024-02-02T14:57:00.140Z,3.60
2024-02-02T14:59:31.986Z,3.73
2024-02-02T15:01:59.525Z,3.27
2024-02-02T15:04:27.018Z,3.77
2024-02-02T15:06:54.802Z,3.73
2024-02-02T15:09:22.632Z,3.77
2024-02-02T15:11:51.434Z,3.53
2024-02-02T15:14:19.003Z,4.30
2024-02-02T15:16:46.569Z,3.50
2024-02-02T15:19:14.199Z,4.20
2024-02-02T15:21:41.987Z,3.67
2024-02-02T15:24:09.500Z,4.43
2024-02-02T15:26:38.331Z,3.83
2024-02-02T15:29:05.923Z,5.13
2024-02-02T15:31:34.038Z,4.47
2024-02-02T15:34:06.198Z,4.40
2024-02-02T15:36:36.225Z,3.53
2024-02-02T15:39:18.741Z,4.50
2024-02-02T15:41:54.257Z,3.93
2024-02-02T15:44:21.817Z,3.53
2024-02-02T15:46:49.257Z,3.80
2024-02-02T15:49:16.903Z,3.70
2024-02-02T15:51:44.552Z,3.80
2024-02-02T15:54:12.010Z,4.70
2024-02-02T15:56:39.786Z,3.97
2024-02-02T15:59:07.983Z,4.17
2024-02-02T16:01:35.516Z,3.80
2024-02-02T16:04:03.500Z,4.67
2024-02-02T16:06:31.201Z,4.93
2024-02-02T16:08:58.701Z,3.83
2024-02-02T16:11:26.193Z,4.13
2024-02-02T16:13:53.954Z,4.03
2024-02-02T16:16:21.447Z,3.83
2024-02-02T16:18:49.020Z,4.20
2024-02-02T16:21:16.579Z,4.00
2024-02-02T16:23:44.121Z,4.13
2024-02-02T16:26:11.696Z,4.80
2024-02-02T16:28:39.053Z,4.37
2024-02-02T16:31:06.607Z,4.00
2024-02-02T16:33:34.120Z,3.80
2024-02-02T16:36:01.627Z,4.40
2024-02-02T16:38:29.207Z,3.83
2024-02-02T16:40:56.564Z,3.77
2024-02-02T16:43:23.876Z,3.90
2024-02-02T16:45:51.623Z,4.07
2024-02-02T16:48:19.442Z,5.17
2024-02-02T16:50:46.990Z,4.90
2024-02-02T16:53:14.382Z,3.70
2024-02-02T16:55:41.854Z,4.00
2024-02-02T16:58:09.457Z,4.07
2024-02-02T17:00:37.554Z,4.07
2024-02-02T17:03:05.218Z,3.60
2024-02-02T17:05:32.674Z,3.57
2024-02-02T17:08:00.229Z,4.53
2024-02-02T17:10:27.665Z,3.93
2024-02-02T17:12:55.121Z,3.90
2024-02-02T17:15:22.775Z,4.10
2024-02-02T17:17:50.510Z,4.23
2024-02-02T17:20:19.160Z,4.30
2024-02-02T17:22:47.198Z,4.70
2024-02-02T17:25:14.604Z,5.93
2024-02-02T17:27:42.492Z,6.93
2024-02-02T17:30:14.197Z,5.47
2024-02-02T17:32:41.722Z,5.30
2024-02-02T17:35:10.199Z,5.13
2024-02-02T17:37:38.656Z,5.17
2024-02-02T17:40:08.581Z,4.87
2024-02-02T17:42:38.425Z,4.50
2024-02-02T17:45:06.382Z,4.67
2024-02-02T17:47:33.740Z,4.33
2024-02-02T17:50:03.583Z,4.13
2024-02-02T17:52:31.930Z,4.33
2024-02-02T17:54:59.845Z,4.97
2024-02-02T17:57:31.996Z,4.07
2024-02-02T17:59:59.928Z,5.00
2024-02-02T18:02:27.444Z,4.90
2024-02-02T18:04:55.038Z,4.90
2024-02-02T18:07:29.983Z,4.33
2024-02-02T18:10:01.250Z,4.00
2024-02-02T18:12:30.475Z,4.53
2024-02-02T18:14:57.959Z,5.80
2024-02-02T18:17:25.415Z,5.80
2024-02-02T18:19:52.876Z,4.60
2024-02-02T18:22:20.334Z,4.30
2024-02-02T18:24:48.541Z,3.87
2024-02-02T18:27:16.160Z,4.20
2024-02-02T18:29:43.870Z,4.50
2024-02-02T18:32:12.136Z,5.07
2024-02-02T18:34:39.476Z,4.30
2024-02-02T18:37:07.008Z,4.40
2024-02-02T18:39:34.444Z,5.00
2024-02-02T18:42:05.404Z,4.00
2024-02-02T18:44:33.001Z,5.10
2024-02-02T18:47:00.366Z,5.40
2024-02-02T18:49:27.939Z,5.20
2024-02-02T18:51:55.412Z,5.27
2024-02-02T18:54:23.083Z,5.07
2024-02-02T18:56:51.045Z,5.67
2024-02-02T18:59:18.564Z,5.90
2024-02-02T19:01:46.025Z,5.37
2024-02-02T19:04:13.738Z,4.90
2024-02-02T19:06:41.384Z,4.73
2024-02-02T19:09:11.800Z,5.20
2024-02-02T19:11:39.261Z,5.30
2024-02-02T19:14:12.716Z,5.17
2024-02-02T19:16:41.458Z,5.40
2024-02-02T19:19:09.283Z,6.03
2024-02-02T19:21:37.052Z,5.87
2024-02-02T19:24:05.630Z,6.37
2024-02-02T19:26:33.056Z,5.87
2024-02-02T19:29:00.548Z,6.40
2024-02-02T19:31:28.947Z,5.67
2024-02-02T19:33:56.784Z,6.47
2024-02-02T19:36:29.033Z,5.30
2024-02-02T19:38:58.645Z,5.23
2024-02-02T19:41:33.370Z,5.13
2024-02-02T19:44:00.996Z,5.10
2024-02-02T19:46:30.421Z,4.70
2024-02-02T19:48:59.624Z,5.23
2024-02-02T19:51:28.724Z,5.50
2024-02-02T19:53:56.633Z,5.50
2024-02-02T19:56:24.633Z,5.30
2024-02-02T19:58:52.345Z,5.33
2024-02-02T20:01:22.194Z,5.63
2024-02-02T20:03:50.713Z,5.10
2024-02-02T20:06:19.537Z,5.73
2024-02-02T20:08:48.712Z,6.37
2024-02-02T20:11:26.215Z,5.93
2024-02-02T20:13:53.719Z,5.80
2024-02-02T20:16:21.768Z,5.93
2024-02-02T20:18:50.503Z,6.50
2024-02-02T20:21:20.317Z,5.30
2024-02-02T20:23:50.343Z,6.50
2024-02-02T20:26:19.789Z,6.30
2024-02-02T20:28:49.096Z,7.17
2024-02-02T20:31:17.031Z,6.63
2024-02-02T20:33:44.781Z,6.47
2024-02-02T20:36:12.482Z,7.27
2024-02-02T20:38:42.056Z,6.57
2024-02-02T20:41:09.564Z,5.97
2024-02-02T20:43:37.035Z,7.13
2024-02-02T20:46:04.627Z,6.77
2024-02-02T20:48:32.004Z,7.43
2024-02-02T20:50:59.436Z,7.17
2024-02-02T20:53:26.866Z,6.20
2024-02-02T20:55:54.390Z,7.27
2024-02-02T20:58:21.832Z,7.70
2024-02-02T21:00:49.260Z,7.43
2024-02-02T21:03:19.261Z,6.77
2024-02-02T21:05:47.076Z,8.10
2024-02-02T21:08:14.569Z,8.63
2024-02-02T21:10:41.877Z,7.77
2024-02-02T21:13:09.252Z,8.07
2024-02-02T21:15:37.675Z,7.67
2024-02-02T21:18:11.300Z,8.60
2024-02-02T21:20:44.346Z,7.63
2024-02-02T21:23:12.851Z,8.27
2024-02-02T21:25:44.200Z,7.93
2024-02-02T21:28:11.757Z,8.33
2024-02-02T21:30:39.635Z,8.07
2024-02-02T21:33:07.239Z,7.57
2024-02-02T21:35:34.600Z,9.37
2024-02-02T21:38:02.005Z,8.70
2024-02-02T21:40:29.334Z,8.40
2024-02-02T21:42:56.742Z,8.33
2024-02-02T21:45:24.270Z,8.70
2024-02-02T21:47:52.002Z,9.00
2024-02-02T21:50:19.708Z,8.47
2024-02-02T21:52:47.258Z,8.57
2024-02-02T21:55:14.620Z,8.47
2024-02-02T21:57:41.965Z,8.87
2024-02-02T22:00:12.656Z,8.10
2024-02-02T22:02:39.989Z,8.43
2024-02-02T22:05:07.547Z,8.90
2024-02-02T22:07:37.736Z,8.73
2024-02-02T22:10:05.656Z,8.80
2024-02-02T22:12:33.043Z,7.80
2024-02-02T22:15:00.437Z,8.50
2024-02-02T22:17:28.739Z,8.23
2024-02-02T22:19:56.185Z,8.80
2024-02-02T22:22:23.695Z,8.50
2024-02-02T22:24:51.194Z,8.50
2024-02-02T22:27:22.281Z,8.17
2024-02-02T22:29:51.167Z,8.50
2024-02-02T22:32:21.418Z,8.80
2024-02-02T22:34:49.680Z,7.63
2024-02-02T22:37:17.252Z,8.53
2024-02-02T22:39:44.872Z,8.20
2024-02-02T22:42:12.363Z,8.50
2024-02-02T22:44:39.719Z,8.70
2024-02-02T22:47:07.084Z,8.87
2024-02-02T22:49:35.249Z,9.13
2024-02-02T22:52:02.907Z,8.53
2024-02-02T22:54:30.338Z,9.13
2024-02-02T22:56:57.742Z,8.60
2024-02-02T22:59:25.157Z,8.10
2024-02-02T23:01:52.588Z,8.70
2024-02-02T23:04:20.139Z,9.77
2024-02-02T23:06:47.733Z,9.53
2024-02-02T23:09:15.213Z,9.73
2024-02-02T23:11:43.085Z,9.33
2024-02-02T23:14:10.757Z,9.37
2024-02-02T23:16:38.230Z,9.73
2024-02-02T23:19:05.922Z,9.43
2024-02-02T23:21:33.828Z,9.53
2024-02-02T23:24:01.286Z,10.30
2024-02-02T23:26:28.616Z,9.17
2024-02-02T23:28:55.886Z,8.90
2024-02-02T23:31:23.517Z,8.50
2024-02-02T23:33:50.943Z,9.37
2024-02-02T23:36:19.112Z,9.90
2024-02-02T23:38:46.585Z,9.30
2024-02-02T23:41:17.890Z,9.33
2024-02-02T23:43:46.044Z,9.50
2024-02-02T23:46:13.368Z,8.80
2024-02-02T23:48:40.983Z,8.93
2024-02-02T23:51:09.499Z,8.53
2024-02-02T23:53:36.856Z,8.47
2024-02-02T23:56:04.403Z,8.87
2024-02-02T23:58:31.767Z,8.70
